createdAt,value
2017-06-30T00:00:58.915Z,55.10
2017-06-30T00:03:27.208Z,55.10
2017-06-30T00:05:55.475Z,55.50
2017-06-30T00:08:23.781Z,55.30
2017-06-30T00:10:52.043Z,55.50
2017-06-30T00:13:20.314Z,55.40
2017-06-30T00:15:48.599Z,55.30
2017-06-30T00:18:16.866Z,55.20
2017-06-30T00:20:45.160Z,55.10
2017-06-30T00:23:13.423Z,55.20
2017-06-30T00:25:41.703Z,55.70
2017-06-30T00:28:09.978Z,55.80
2017-06-30T00:30:38.266Z,55.40
2017-06-30T00:33:06.535Z,55.50
2017-06-30T00:35:34.823Z,55.80
2017-06-30T00:38:03.087Z,55.90
2017-06-30T00:40:31.391Z,55.80
2017-06-30T00:42:59.660Z,55.70
2017-06-30T00:45:27.931Z,55.90
2017-06-30T00:47:56.226Z,55.80
2017-06-30T00:50:25.260Z,55.80
2017-06-30T00:52:53.583Z,55.70
2017-06-30T00:55:21.847Z,55.80
2017-06-30T00:57:50.131Z,56.00
2017-06-30T01:03:18.606Z,56.30
2017-06-30T01:05:46.862Z,56.30
2017-06-30T01:08:15.910Z,56.50
2017-06-30T01:10:44.185Z,56.50
2017-06-30T01:13:12.470Z,56.30
2017-06-30T01:15:40.736Z,56.30
2017-06-30T01:18:08.994Z,56.40
2017-06-30T01:20:37.280Z,56.50
2017-06-30T01:23:05.544Z,56.60
2017-06-30T01:25:33.831Z,56.40
2017-06-30T01:28:02.092Z,56.40
2017-06-30T01:30:30.375Z,56.30
2017-06-30T01:32:58.644Z,56.60
2017-06-30T01:35:26.928Z,56.50
2017-06-30T01:37:55.213Z,56.60
2017-06-30T01:40:23.490Z,56.60
2017-06-30T01:42:51.762Z,56.20
2017-06-30T01:45:20.051Z,56.70
2017-06-30T01:47:48.328Z,56.80
2017-06-30T01:50:16.602Z,57.10
2017-06-30T01:52:44.875Z,57.20
2017-06-30T01:55:13.155Z,57.50
2017-06-30T01:57:41.430Z,57.30
2017-06-30T02:00:09.699Z,56.80
2017-06-30T02:02:37.984Z,57.00
2017-06-30T02:05:06.243Z,57.20
2017-06-30T02:07:34.531Z,57.00
2017-06-30T02:10:02.793Z,57.20
2017-06-30T02:12:31.074Z,57.20
2017-06-30T02:14:59.338Z,57.30
2017-06-30T02:17:28.390Z,57.40
2017-06-30T02:19:56.662Z,57.40
2017-06-30T02:22:24.975Z,57.60
2017-06-30T02:24:53.244Z,57.30
2017-06-30T02:27:21.520Z,56.90
2017-06-30T02:29:49.796Z,57.00
2017-06-30T02:32:18.063Z,57.20
2017-06-30T02:34:46.351Z,57.40
2017-06-30T02:37:14.616Z,57.30
2017-06-30T02:39:42.940Z,56.80
2017-06-30T02:42:11.203Z,57.20
2017-06-30T02:44:40.259Z,56.90
2017-06-30T02:47:08.521Z,56.90
2017-06-30T02:49:36.795Z,57.00
2017-06-30T02:52:05.058Z,57.10
2017-06-30T02:54:33.346Z,56.90
2017-06-30T02:57:01.629Z,57.20
2017-06-30T02:59:29.908Z,57.00
2017-06-30T03:01:58.167Z,57.10
2017-06-30T03:04:26.472Z,57.20
2017-06-30T03:06:54.738Z,57.30
2017-06-30T03:09:22.995Z,57.50
2017-06-30T03:11:51.286Z,57.30
2017-06-30T03:14:19.555Z,57.30
2017-06-30T03:16:47.839Z,57.80
2017-06-30T03:19:16.104Z,57.50
2017-06-30T03:21:44.384Z,57.70
2017-06-30T03:24:12.722Z,57.60
2017-06-30T03:26:40.995Z,57.70
2017-06-30T03:29:09.263Z,57.80
2017-06-30T03:31:37.564Z,57.60
2017-06-30T03:34:05.824Z,57.60
2017-06-30T03:36:34.126Z,57.80
2017-06-30T03:39:02.395Z,57.70
2017-06-30T03:41:31.435Z,57.70
2017-06-30T03:43:59.719Z,57.60
2017-06-30T03:46:27.981Z,57.40
2017-06-30T03:48:56.268Z,57.60
2017-06-30T03:51:24.535Z,57.50
2017-06-30T03:53:52.822Z,57.50
2017-06-30T03:56:21.085Z,57.80
2017-06-30T03:58:49.374Z,57.70
2017-06-30T04:01:17.632Z,57.80
2017-06-30T04:03:45.923Z,57.60
2017-06-30T04:06:14.187Z,58.00
2017-06-30T04:08:42.471Z,57.40
2017-06-30T04:11:10.751Z,57.20
2017-06-30T04:13:39.010Z,57.30
2017-06-30T04:16:07.311Z,57.30
2017-06-30T04:18:35.571Z,57.00
2017-06-30T04:21:03.860Z,57.10
2017-06-30T04:23:32.140Z,56.60
2017-06-30T04:26:00.442Z,56.50
2017-06-30T04:28:28.701Z,56.80
2017-06-30T04:30:57.007Z,56.50
2017-06-30T04:33:25.271Z,56.20
2017-06-30T04:35:53.538Z,56.10
2017-06-30T04:38:21.832Z,56.40
2017-06-30T04:40:50.091Z,56.40
2017-06-30T04:43:18.379Z,56.20
2017-06-30T04:45:46.642Z,56.50
2017-06-30T04:48:14.931Z,56.60
2017-06-30T04:50:43.196Z,56.70
2017-06-30T04:53:11.479Z,57.10
2017-06-30T04:55:39.744Z,56.60
2017-06-30T04:58:08.057Z,56.70
2017-06-30T05:00:36.323Z,56.80
2017-06-30T05:03:04.620Z,56.80
2017-06-30T05:05:32.912Z,56.80
2017-06-30T05:08:01.969Z,56.60
2017-06-30T05:10:30.253Z,56.60
2017-06-30T05:12:58.532Z,56.50
2017-06-30T05:15:26.828Z,56.60
2017-06-30T05:17:55.083Z,56.20
2017-06-30T05:20:23.364Z,56.50
2017-06-30T05:22:51.641Z,56.80
2017-06-30T05:25:19.930Z,56.10
2017-06-30T05:27:48.203Z,56.30
2017-06-30T05:30:16.465Z,56.90
2017-06-30T05:32:44.755Z,56.80
2017-06-30T05:35:13.028Z,56.60
2017-06-30T05:37:41.313Z,56.80
2017-06-30T05:40:09.580Z,57.20
2017-06-30T05:42:37.921Z,57.30
2017-06-30T05:45:06.189Z,56.90
2017-06-30T05:47:34.494Z,56.40
2017-06-30T05:50:02.776Z,56.90
2017-06-30T05:52:31.040Z,56.50
2017-06-30T05:54:59.327Z,55.80
2017-06-30T05:57:27.597Z,56.10
2017-06-30T05:59:55.880Z,56.10
2017-06-30T06:02:24.156Z,56.00
2017-06-30T06:04:52.436Z,55.30
2017-06-30T06:07:20.699Z,55.40
2017-06-30T06:09:48.989Z,54.70
2017-06-30T06:12:17.263Z,54.60
2017-06-30T06:14:45.554Z,54.80
2017-06-30T06:17:13.819Z,54.80
2017-06-30T06:19:42.087Z,53.80
2017-06-30T06:22:10.383Z,54.10
2017-06-30T06:24:38.647Z,54.10
2017-06-30T06:27:06.927Z,53.70
2017-06-30T06:29:35.201Z,53.70
2017-06-30T06:32:03.488Z,53.20
2017-06-30T06:34:31.756Z,53.90
2017-06-30T06:37:00.081Z,52.90
2017-06-30T06:39:29.122Z,52.70
2017-06-30T06:41:57.400Z,52.70
2017-06-30T06:44:25.687Z,51.70
2017-06-30T06:46:53.954Z,50.60
2017-06-30T06:49:22.246Z,50.40
2017-06-30T06:51:50.511Z,49.20
2017-06-30T06:54:18.804Z,49.10
2017-06-30T06:56:47.075Z,48.10
2017-06-30T06:59:15.363Z,48.00
2017-06-30T07:01:43.637Z,47.80
2017-06-30T07:04:11.907Z,47.30
2017-06-30T07:06:40.200Z,46.20
2017-06-30T07:09:08.492Z,45.50
2017-06-30T07:11:36.771Z,44.90
2017-06-30T07:14:05.816Z,45.30
2017-06-30T07:16:34.103Z,44.80
2017-06-30T07:19:02.382Z,45.50
2017-06-30T07:21:30.668Z,45.30
2017-06-30T07:23:58.931Z,44.80
2017-06-30T07:26:27.238Z,45.00
2017-06-30T07:28:55.506Z,45.50
2017-06-30T07:31:23.791Z,44.70
2017-06-30T07:33:52.068Z,45.70
2017-06-30T07:36:20.336Z,45.70
2017-06-30T07:38:48.620Z,44.90
2017-06-30T07:41:16.886Z,43.80
2017-06-30T07:43:45.183Z,42.50
2017-06-30T07:46:13.456Z,42.50
2017-06-30T07:48:41.736Z,42.50
2017-06-30T07:51:10.008Z,42.60
2017-06-30T07:53:38.295Z,42.40
2017-06-30T07:56:07.330Z,43.80
2017-06-30T07:58:35.612Z,43.30
2017-06-30T08:01:03.901Z,43.90
2017-06-30T08:03:32.778Z,43.90
2017-06-30T08:06:01.056Z,44.50
2017-06-30T08:08:29.323Z,43.90
2017-06-30T08:10:57.607Z,42.50
2017-06-30T08:13:25.880Z,42.30
2017-06-30T08:15:54.167Z,42.80
2017-06-30T08:18:22.443Z,42.40
2017-06-30T08:20:50.731Z,42.80
2017-06-30T08:23:18.999Z,42.00
2017-06-30T08:25:47.271Z,41.50
2017-06-30T08:28:15.565Z,40.40
2017-06-30T08:30:43.833Z,40.00
2017-06-30T08:33:12.124Z,40.20
2017-06-30T08:35:40.396Z,40.00
2017-06-30T08:38:08.687Z,39.00
2017-06-30T08:40:36.955Z,40.50
2017-06-30T08:43:05.246Z,39.40
2017-06-30T08:45:33.509Z,38.80
2017-06-30T08:48:01.816Z,38.60
2017-06-30T08:50:30.090Z,38.00
2017-06-30T08:52:58.446Z,38.00
2017-06-30T08:55:26.743Z,38.70
2017-06-30T08:57:55.054Z,37.50
2017-06-30T09:00:23.301Z,38.30
2017-06-30T09:02:51.571Z,38.60
2017-06-30T09:05:19.855Z,38.80
2017-06-30T09:07:48.127Z,37.60
2017-06-30T09:10:16.412Z,38.00
2017-06-30T09:12:44.680Z,37.90
2017-06-30T09:15:12.983Z,38.50
2017-06-30T09:17:42.020Z,38.20
2017-06-30T09:20:10.319Z,38.10
2017-06-30T09:22:38.597Z,38.20
2017-06-30T09:25:06.872Z,38.40
2017-06-30T09:27:35.159Z,38.10
2017-06-30T09:30:03.420Z,37.70
2017-06-30T09:32:31.711Z,36.90
2017-06-30T09:34:59.988Z,37.90
2017-06-30T09:37:28.299Z,37.30
2017-06-30T09:39:57.335Z,38.30
2017-06-30T09:42:25.621Z,38.20
2017-06-30T09:44:53.892Z,36.90
2017-06-30T09:47:22.176Z,38.00
2017-06-30T09:49:50.439Z,38.30
2017-06-30T09:52:19.073Z,36.70
2017-06-30T09:54:48.227Z,37.10
2017-06-30T09:57:16.731Z,37.00
2017-06-30T09:59:45.092Z,36.60
2017-06-30T10:02:13.351Z,35.90
2017-06-30T10:04:41.652Z,35.90
2017-06-30T10:07:09.940Z,37.10
2017-06-30T10:09:38.234Z,38.00
2017-06-30T10:12:06.504Z,37.40
2017-06-30T10:14:34.787Z,37.60
2017-06-30T10:17:03.062Z,37.80
2017-06-30T10:19:31.343Z,35.00
2017-06-30T10:21:59.615Z,34.30
2017-06-30T10:24:27.919Z,35.70
2017-06-30T10:26:56.968Z,35.80
2017-06-30T10:29:25.236Z,35.80
2017-06-30T10:31:53.520Z,36.50
2017-06-30T10:34:21.800Z,35.20
2017-06-30T10:36:50.092Z,36.30
2017-06-30T10:39:18.356Z,35.10
2017-06-30T10:41:46.643Z,34.20
2017-06-30T10:44:14.920Z,33.30
2017-06-30T10:46:43.215Z,34.00
2017-06-30T10:49:12.292Z,34.10
2017-06-30T10:51:40.571Z,34.10
2017-06-30T10:54:08.852Z,32.60
2017-06-30T10:56:37.159Z,32.90
2017-06-30T10:59:06.207Z,34.00
2017-06-30T11:01:34.487Z,34.00
2017-06-30T11:04:02.775Z,33.80
2017-06-30T11:06:31.044Z,32.70
2017-06-30T11:08:59.338Z,32.90
2017-06-30T11:11:27.620Z,33.70
2017-06-30T11:13:55.911Z,33.60
2017-06-30T11:16:24.953Z,33.30
2017-06-30T11:18:53.249Z,33.30
2017-06-30T11:21:21.609Z,33.60
2017-06-30T11:23:49.900Z,33.50
2017-06-30T11:26:18.162Z,34.10
2017-06-30T11:28:46.460Z,33.50
2017-06-30T11:31:14.749Z,31.80
2017-06-30T11:33:43.140Z,32.00
2017-06-30T11:36:11.410Z,33.20
2017-06-30T11:38:39.671Z,31.70
2017-06-30T11:41:08.667Z,32.40
2017-06-30T11:43:36.945Z,32.40
2017-06-30T11:46:05.247Z,31.70
2017-06-30T11:48:34.291Z,32.30
2017-06-30T11:51:02.578Z,32.30
2017-06-30T11:53:30.839Z,32.90
2017-06-30T11:55:59.133Z,32.90
2017-06-30T11:58:27.398Z,34.20
2017-06-30T12:00:55.690Z,34.00
2017-06-30T12:03:23.961Z,33.40
2017-06-30T12:05:52.267Z,33.40
2017-06-30T12:08:20.544Z,33.30
2017-06-30T12:10:48.811Z,33.30
2017-06-30T12:13:17.095Z,33.70
2017-06-30T12:15:46.160Z,33.70
2017-06-30T12:18:14.451Z,33.70
2017-06-30T12:20:42.727Z,34.10
2017-06-30T12:23:11.112Z,33.20
2017-06-30T12:25:39.395Z,34.60
2017-06-30T12:28:07.691Z,33.30
2017-06-30T12:30:36.737Z,34.50
2017-06-30T12:33:05.116Z,33.90
2017-06-30T12:35:33.395Z,33.70
2017-06-30T12:38:01.712Z,33.70
2017-06-30T12:40:29.982Z,34.60
2017-06-30T12:42:58.260Z,33.80
2017-06-30T12:45:26.551Z,33.80
2017-06-30T12:47:55.606Z,34.50
2017-06-30T12:50:23.897Z,33.90
2017-06-30T12:52:52.172Z,32.60
2017-06-30T12:55:20.466Z,32.80
2017-06-30T12:57:48.732Z,33.60
2017-06-30T13:00:17.028Z,32.80
2017-06-30T13:02:45.304Z,33.30
2017-06-30T13:05:13.595Z,31.90
2017-06-30T13:07:42.633Z,32.60
2017-06-30T13:10:10.939Z,32.60
2017-06-30T13:12:39.207Z,32.40
2017-06-30T13:15:07.487Z,31.60
2017-06-30T13:17:35.818Z,32.60
2017-06-30T13:20:04.080Z,32.40
2017-06-30T13:22:33.136Z,32.80
2017-06-30T13:25:01.436Z,32.80
2017-06-30T13:27:29.723Z,33.50
2017-06-30T13:29:59.126Z,32.70
2017-06-30T13:32:28.180Z,31.40
2017-06-30T13:34:56.460Z,31.30
2017-06-30T13:37:25.715Z,32.00
2017-06-30T13:39:53.987Z,30.70
2017-06-30T13:42:22.296Z,30.70
2017-06-30T13:44:50.571Z,30.90
2017-06-30T13:47:18.867Z,31.40
2017-06-30T13:49:47.148Z,30.90
2017-06-30T13:52:15.419Z,30.20
2017-06-30T13:54:43.725Z,31.10
2017-06-30T13:57:12.001Z,31.30
2017-06-30T13:59:40.292Z,30.80
2017-06-30T14:02:09.328Z,31.80
2017-06-30T14:04:37.614Z,31.50
2017-06-30T14:07:05.892Z,31.60
2017-06-30T14:09:34.191Z,31.80
2017-06-30T14:12:02.471Z,32.20
2017-06-30T14:14:30.754Z,31.70
2017-06-30T14:16:59.032Z,31.80
2017-06-30T14:19:27.341Z,32.40
2017-06-30T14:21:55.643Z,31.50
2017-06-30T14:24:23.923Z,30.80
2017-06-30T14:26:52.223Z,32.00
2017-06-30T14:29:20.499Z,31.60
2017-06-30T14:31:48.797Z,31.60
2017-06-30T14:34:17.091Z,30.80
2017-06-30T14:36:45.378Z,31.00
2017-06-30T14:39:14.416Z,30.30
2017-06-30T14:41:42.714Z,30.30
2017-06-30T14:44:10.998Z,30.00
2017-06-30T14:46:39.289Z,30.50
2017-06-30T14:49:08.347Z,30.50
2017-06-30T14:51:36.645Z,30.00
2017-06-30T14:54:04.926Z,30.00
2017-06-30T14:56:33.203Z,29.80
2017-06-30T14:59:01.492Z,29.70
2017-06-30T15:01:29.773Z,29.50
2017-06-30T15:03:58.063Z,29.70
2017-06-30T15:06:26.353Z,29.80
2017-06-30T15:08:54.640Z,29.30
2017-06-30T15:11:22.925Z,30.00
2017-06-30T15:13:51.216Z,29.30
2017-06-30T15:16:19.483Z,29.30
2017-06-30T15:18:47.826Z,29.70
2017-06-30T15:21:16.855Z,29.90
2017-06-30T15:23:45.188Z,29.90
2017-06-30T15:26:14.236Z,31.10
2017-06-30T15:28:42.506Z,30.70
2017-06-30T15:31:10.811Z,29.30
2017-06-30T15:33:39.090Z,30.10
2017-06-30T15:36:07.376Z,29.60
2017-06-30T15:38:35.644Z,30.90
2017-06-30T15:41:03.934Z,30.00
2017-06-30T15:43:32.214Z,30.10
2017-06-30T15:46:00.499Z,30.00
2017-06-30T15:48:29.543Z,30.00
2017-06-30T15:50:57.857Z,30.00
2017-06-30T15:53:26.137Z,30.00
2017-06-30T15:55:54.417Z,30.00
2017-06-30T15:58:22.704Z,29.90
2017-06-30T16:00:50.983Z,29.90
2017-06-30T16:03:19.276Z,29.80
2017-06-30T16:05:48.310Z,30.00
2017-06-30T16:08:16.607Z,30.00
2017-06-30T16:10:44.884Z,30.00
2017-06-30T16:13:13.172Z,30.10
2017-06-30T16:15:41.459Z,30.20
2017-06-30T16:18:09.773Z,29.90
2017-06-30T16:20:38.047Z,29.90
2017-06-30T16:23:06.320Z,30.00
2017-06-30T16:25:34.612Z,29.80
2017-06-30T16:28:02.886Z,29.90
2017-06-30T16:30:31.191Z,29.90
2017-06-30T16:32:59.474Z,29.50
2017-06-30T16:35:27.779Z,29.50
2017-06-30T16:37:56.827Z,30.00
2017-06-30T16:40:25.128Z,30.40
2017-06-30T16:42:53.411Z,30.60
2017-06-30T16:45:21.729Z,30.60
2017-06-30T16:47:50.019Z,31.40
2017-06-30T16:50:19.214Z,30.80
2017-06-30T16:52:47.503Z,30.60
2017-06-30T16:55:15.780Z,30.90
2017-06-30T16:57:44.128Z,31.60
2017-06-30T17:00:13.180Z,32.70
2017-06-30T17:02:41.471Z,32.70
2017-06-30T17:05:09.755Z,32.90
2017-06-30T17:07:38.047Z,33.30
2017-06-30T17:10:06.319Z,33.20
2017-06-30T17:12:34.619Z,33.90
2017-06-30T17:15:02.895Z,33.90
2017-06-30T17:17:31.928Z,34.40
2017-06-30T17:20:00.220Z,34.40
2017-06-30T17:22:28.487Z,35.40
2017-06-30T17:24:56.776Z,34.90
2017-06-30T17:27:25.051Z,35.00
2017-06-30T17:29:53.341Z,35.70
2017-06-30T17:32:21.640Z,36.50
2017-06-30T17:34:49.919Z,36.30
2017-06-30T17:37:18.966Z,38.40
2017-06-30T17:39:47.242Z,37.80
2017-06-30T17:42:15.535Z,38.10
2017-06-30T17:44:43.803Z,38.50
2017-06-30T17:47:12.100Z,39.30
2017-06-30T17:49:40.376Z,39.90
2017-06-30T17:52:08.668Z,41.20
2017-06-30T17:54:36.939Z,41.80
2017-06-30T17:57:05.239Z,41.20
2017-06-30T17:59:34.272Z,42.80
2017-06-30T18:02:02.559Z,42.80
2017-06-30T18:04:30.831Z,42.20
2017-06-30T18:06:59.130Z,42.80
2017-06-30T18:09:27.409Z,40.50
2017-06-30T18:11:55.685Z,38.50
2017-06-30T18:14:23.988Z,38.10
2017-06-30T18:16:53.019Z,38.90
2017-06-30T18:19:21.316Z,38.30
2017-06-30T18:21:49.587Z,37.40
2017-06-30T18:24:17.876Z,37.40
2017-06-30T18:26:46.156Z,36.70
2017-06-30T18:29:14.448Z,36.70
2017-06-30T18:31:42.721Z,35.90
2017-06-30T18:34:11.012Z,35.30
2017-06-30T18:36:39.276Z,35.00
2017-06-30T18:39:07.561Z,34.60
2017-06-30T18:41:35.851Z,34.80
2017-06-30T18:44:04.127Z,34.50
2017-06-30T18:46:32.426Z,34.60
2017-06-30T18:49:01.461Z,35.20
2017-06-30T18:51:29.744Z,35.00
2017-06-30T18:53:58.018Z,35.40
2017-06-30T18:56:26.300Z,35.50
2017-06-30T18:58:54.576Z,36.30
2017-06-30T19:01:22.895Z,37.30
2017-06-30T19:03:51.954Z,38.80
2017-06-30T19:06:20.219Z,38.90
2017-06-30T19:08:48.520Z,39.70
2017-06-30T19:11:16.790Z,40.00
2017-06-30T19:13:45.078Z,40.60
2017-06-30T19:16:13.343Z,40.30
2017-06-30T19:18:41.663Z,41.40
2017-06-30T19:21:10.704Z,41.60
2017-06-30T19:23:39.001Z,41.60
2017-06-30T19:26:07.272Z,41.80
2017-06-30T19:28:35.567Z,42.40
2017-06-30T19:31:04.623Z,42.80
2017-06-30T19:33:33.748Z,42.80
2017-06-30T19:36:02.051Z,43.30
2017-06-30T19:38:30.357Z,43.30
2017-06-30T19:40:58.640Z,43.40
2017-06-30T19:43:26.961Z,43.40
2017-06-30T19:45:55.263Z,43.70
2017-06-30T19:48:23.532Z,43.80
2017-06-30T19:50:52.630Z,43.60
2017-06-30T19:53:20.959Z,43.60
2017-06-30T19:55:49.255Z,43.80
2017-06-30T19:58:17.536Z,43.90
2017-06-30T20:00:45.819Z,43.90
2017-06-30T20:03:14.083Z,44.20
2017-06-30T20:05:42.365Z,44.40
2017-06-30T20:08:10.647Z,44.60
2017-06-30T20:10:38.929Z,44.60
2017-06-30T20:13:07.217Z,44.60
2017-06-30T20:15:35.491Z,45.00
2017-06-30T20:18:03.782Z,45.00
2017-06-30T20:20:32.820Z,45.80
2017-06-30T20:23:01.115Z,45.10
2017-06-30T20:25:29.387Z,45.10
2017-06-30T20:27:57.671Z,45.50
2017-06-30T20:30:25.948Z,45.90
2017-06-30T20:32:54.252Z,46.20
2017-06-30T20:35:22.518Z,46.30
2017-06-30T20:37:50.781Z,46.70
2017-06-30T20:40:19.068Z,47.00
2017-06-30T20:42:47.331Z,47.70
2017-06-30T20:45:15.624Z,48.00
2017-06-30T20:47:43.885Z,48.30
2017-06-30T20:50:12.178Z,48.60
2017-06-30T20:52:40.464Z,49.10
2017-06-30T20:55:08.743Z,49.50
2017-06-30T20:57:37.016Z,49.90
2017-06-30T21:00:05.292Z,49.90
2017-06-30T21:02:33.571Z,50.00
2017-06-30T21:05:01.864Z,50.20
2017-06-30T21:07:30.891Z,50.30
2017-06-30T21:09:59.189Z,50.30
2017-06-30T21:12:27.454Z,50.50
2017-06-30T21:14:55.726Z,50.70
2017-06-30T21:17:24.037Z,50.80
2017-06-30T21:19:52.302Z,50.80
2017-06-30T21:22:20.594Z,51.10
2017-06-30T21:24:48.892Z,51.20
2017-06-30T21:27:17.952Z,51.40
2017-06-30T21:29:46.228Z,51.40
2017-06-30T21:32:14.584Z,51.40
2017-06-30T21:34:42.945Z,51.50
2017-06-30T21:37:11.267Z,51.70
2017-06-30T21:39:39.687Z,51.30
2017-06-30T21:42:08.028Z,51.30
2017-06-30T21:44:36.296Z,50.80
2017-06-30T21:47:04.601Z,51.30
2017-06-30T21:49:33.015Z,51.20
2017-06-30T21:52:01.459Z,51.40
2017-06-30T21:54:29.825Z,51.40
2017-06-30T21:56:58.146Z,51.20
2017-06-30T21:59:27.301Z,51.30
2017-06-30T22:01:55.704Z,51.30
2017-06-30T22:04:24.248Z,51.90
2017-06-30T22:06:52.533Z,52.00
2017-06-30T22:09:20.833Z,52.10
2017-06-30T22:11:49.095Z,51.90
2017-06-30T22:14:17.412Z,52.00
2017-06-30T22:16:45.700Z,52.50
2017-06-30T22:19:13.985Z,52.40
2017-06-30T22:21:45.554Z,52.70
2017-06-30T22:24:15.943Z,52.50
2017-06-30T22:26:44.559Z,52.50
2017-06-30T22:29:12.817Z,52.80
2017-06-30T22:31:41.117Z,52.90
2017-06-30T22:34:09.391Z,52.70
2017-06-30T22:36:37.690Z,52.50
2017-06-30T22:39:05.970Z,52.40
2017-06-30T22:41:34.252Z,52.50
2017-06-30T22:44:02.529Z,52.80
2017-06-30T22:46:30.824Z,52.70
2017-06-30T22:48:59.128Z,53.10
2017-06-30T22:51:27.432Z,53.10
2017-06-30T22:53:55.715Z,53.10
2017-06-30T22:56:23.988Z,53.40
2017-06-30T22:58:52.277Z,53.60
2017-06-30T23:01:20.565Z,53.60
2017-06-30T23:03:48.851Z,53.40
2017-06-30T23:06:17.136Z,52.80
2017-06-30T23:08:45.447Z,52.90
2017-06-30T23:11:14.481Z,53.00
2017-06-30T23:13:42.780Z,53.00
2017-06-30T23:16:11.058Z,52.80
2017-06-30T23:18:39.390Z,52.60
2017-06-30T23:21:08.429Z,52.60
2017-06-30T23:23:36.704Z,52.50
2017-06-30T23:26:04.990Z,52.30
2017-06-30T23:28:33.262Z,52.00
2017-06-30T23:31:01.556Z,52.40
2017-06-30T23:33:29.856Z,52.30
2017-06-30T23:35:58.924Z,52.40
2017-06-30T23:38:27.200Z,52.30
2017-06-30T23:40:55.491Z,52.20
2017-06-30T23:43:23.773Z,52.00
2017-06-30T23:45:52.833Z,53.00
2017-06-30T23:48:21.128Z,52.50
2017-06-30T23:50:49.437Z,52.50
2017-06-30T23:53:17.718Z,52.30
2017-06-30T23:55:45.993Z,52.30
2017-06-30T23:58:15.048Z,52.70
